Time;durP1;ratioP1;P1;durP2;ratioP2;P2;SDS_P1;SDS_P2;PMS_P1;PMS_P2;Temp;Humidity;BMP_temperature;BMP_pressure;BME280_temperature;BME280_humidity;BME280_pressure;Samples;Min_cycle;Max_cycle;Signal;HPM_P1;HPM_P2
2021/04/02 00:00:21;;;;;;;16.53;8.50;;;;;;;10.16;36.32;94997.53;5083293;28;21059;-76
2021/04/02 00:02:47;;;;;;;13.60;8.70;;;;;;;9.93;37.09;95000.47;5089181;28;20465;-76
2021/04/02 00:05:18;;;;;;;14.70;8.20;;;;;;;10.12;36.53;94990.47;5082917;28;20464;-73
2021/04/02 00:07:44;;;;;;;14.73;8.60;;;;;;;10.19;36.73;94985.78;5089046;28;20532;-75
2021/04/02 00:10:19;;;;;;;16.37;9.27;;;;;;;10.10;36.57;94987.28;5083506;28;20481;-72
2021/04/02 00:12:46;;;;;;;15.40;7.93;;;;;;;10.05;36.63;94980.16;5088894;28;20448;-72
2021/04/02 00:15:20;;;;;;;12.57;8.33;;;;;;;9.84;37.40;94961.91;5083107;28;20460;-72
2021/04/02 00:17:51;;;;;;;15.97;8.30;;;;;;;9.95;36.97;94987.13;5088337;28;20450;-70
2021/04/02 00:20:19;;;;;;;11.60;7.90;;;;;;;9.99;36.44;94980.38;5083148;28;20460;-75
2021/04/02 00:22:46;;;;;;;13.63;8.60;;;;;;;9.85;36.57;94979.19;5087523;28;20484;-73
2021/04/02 00:25:14;;;;;;;12.40;8.23;;;;;;;9.83;37.11;94981.28;5083036;28;20456;-76
2021/04/02 00:27:42;;;;;;;13.40;8.60;;;;;;;9.87;36.76;94977.13;5088954;28;20536;-76
2021/04/02 00:30:14;;;;;;;15.20;8.33;;;;;;;9.84;37.31;94973.16;5082744;28;20488;-73
2021/04/02 00:32:42;;;;;;;14.63;7.80;;;;;;;9.65;37.49;94966.69;5088756;28;20794;-71
2021/04/02 00:35:11;;;;;;;10.60;7.83;;;;;;;9.74;36.88;94973.09;5082749;28;20441;-75
2021/04/02 00:37:38;;;;;;;11.83;7.77;;;;;;;9.68;36.18;94968.84;5087965;28;20488;-75
2021/04/02 00:40:29;;;;;;;15.03;7.97;;;;;;;9.80;36.63;94958.19;5082875;28;20456;-77
2021/04/02 00:42:56;;;;;;;13.33;7.83;;;;;;;9.37;36.66;94945.25;5087079;28;20929;-72
2021/04/02 00:45:23;;;;;;;17.70;7.13;;;;;;;9.33;37.03;94957.22;5083395;28;20445;-71
2021/04/02 00:47:53;;;;;;;10.80;7.13;;;;;;;9.38;36.90;94952.06;5087367;28;20441;-74
2021/04/02 00:50:52;;;;;;;10.90;6.93;;;;;;;9.59;36.53;94953.84;5083121;28;20448;-73
2021/04/02 00:53:21;;;;;;;11.80;7.20;;;;;;;9.46;37.10;94956.84;5083773;28;20458;-74
2021/04/02 00:55:50;;;;;;;12.53;7.03;;;;;;;9.68;37.55;94952.34;5086712;28;21091;-79
2021/04/02 00:58:23;;;;;;;9.37;7.03;;;;;;;9.55;38.17;94950.13;5082210;28;20552;-70
2021/04/02 01:00:51;;;;;;;13.10;7.53;;;;;;;9.62;37.10;94937.63;5087257;28;20974;-71
2021/04/02 01:03:20;;;;;;;10.77;7.00;;;;;;;9.58;37.85;94941.81;5082079;28;20547;-71
2021/04/02 01:05:49;;;;;;;10.67;7.67;;;;;;;9.53;37.75;94939.13;5085315;28;20499;-75
2021/04/02 01:08:19;;;;;;;17.63;9.70;;;;;;;9.58;38.40;94947.81;5082467;28;20456;-73
2021/04/02 01:10:49;;;;;;;16.43;9.87;;;;;;;9.58;38.88;94947.03;5084990;28;20541;-76
2021/04/02 01:13:20;;;;;;;18.60;9.63;;;;;;;9.50;38.99;94955.31;5083744;28;20497;-73
2021/04/02 01:16:02;;;;;;;16.17;10.03;;;;;;;9.31;38.86;94935.75;5087268;28;20445;-75
2021/04/02 01:18:41;;;;;;;16.33;9.93;;;;;;;9.37;39.01;94950.47;5080732;28;20449;-79
2021/04/02 01:21:18;;;;;;;16.70;9.17;;;;;;;9.13;39.93;94940.28;5089333;28;21289;-73
2021/04/02 01:24:01;;;;;;;16.87;9.17;;;;;;;8.98;40.51;94937.50;5079627;28;20483;-77
2021/04/02 01:26:32;;;;;;;19.53;9.20;;;;;;;8.93;40.15;94928.81;5049091;28;20454;-79
2021/04/02 01:29:13;;;;;;;16.50;8.80;;;;;;;9.18;40.07;94926.47;5075012;28;20458;-73
2021/04/02 01:31:47;;;;;;;19.80;11.00;;;;;;;9.16;40.16;94926.72;5090655;28;20502;-75
2021/04/02 01:34:19;;;;;;;19.20;11.50;;;;;;;9.13;40.22;94919.38;5082002;28;20454;-73
2021/04/02 01:36:49;;;;;;;22.33;11.37;;;;;;;8.96;40.02;94912.63;5068871;28;20878;-72
2021/04/02 01:39:19;;;;;;;22.83;12.17;;;;;;;8.99;40.14;94912.16;5079258;28;20558;-73
2021/04/02 01:41:50;;;;;;;29.87;14.03;;;;;;;9.03;39.85;94913.25;5090052;28;21116;-73
2021/04/02 01:44:18;;;;;;;23.27;14.10;;;;;;;9.12;39.14;94909.94;5061221;28;20479;-77
2021/04/02 01:46:46;;;;;;;24.43;13.47;;;;;;;9.18;40.03;94910.78;5088943;28;20536;-74
2021/04/02 01:49:14;;;;;;;27.13;14.67;;;;;;;9.03;40.40;94908.81;5080256;28;20975;-72
2021/04/02 01:51:43;;;;;;;31.97;16.00;;;;;;;8.97;40.69;94909.81;5068405;28;20441;-72
2021/04/02 01:54:12;;;;;;;26.87;15.47;;;;;;;8.84;40.16;94898.91;5080362;28;20836;-74
2021/04/02 01:56:39;;;;;;;20.30;11.40;;;;;;;8.84;40.55;94902.34;5070063;28;20456;-73
2021/04/02 01:59:09;;;;;;;17.90;10.83;;;;;;;8.95;40.09;94909.25;5075762;28;21021;-75
2021/04/02 02:01:41;;;;;;;18.63;10.90;;;;;;;8.84;40.04;94899.72;5088639;28;20496;-76
2021/04/02 02:04:15;;;;;;;19.57;10.50;;;;;;;8.90;40.19;94909.22;5078521;28;20909;-72
2021/04/02 02:06:45;;;;;;;13.90;9.17;;;;;;;8.79;40.45;94899.66;5088846;28;20465;-76
2021/04/02 02:09:41;;;;;;;15.93;8.80;;;;;;;8.89;40.59;94910.22;5078689;28;20553;-71
2021/04/02 02:12:29;;;;;;;13.13;8.53;;;;;;;8.69;40.96;94885.66;5085427;28;20505;-72
2021/04/02 02:15:02;;;;;;;16.87;9.47;;;;;;;8.80;41.04;94898.63;5079564;28;20510;-74
2021/04/02 02:17:33;;;;;;;19.70;9.27;;;;;;;8.76;41.02;94897.53;5084964;28;20442;-74
2021/04/02 02:20:06;;;;;;;14.97;8.70;;;;;;;8.86;40.39;94897.66;5082287;28;20445;-69
2021/04/02 02:22:33;;;;;;;13.63;8.70;;;;;;;8.81;40.81;94887.13;5085778;28;20476;-71
2021/04/02 02:25:09;;;;;;;16.33;9.57;;;;;;;8.93;40.58;94887.81;5082224;28;20440;-77
2021/04/02 02:27:38;;;;;;;19.63;10.00;;;;;;;8.56;40.94;94892.06;5086494;28;20477;-75
2021/04/02 02:30:15;;;;;;;15.53;9.43;;;;;;;8.47;41.26;94877.03;5081887;28;20450;-74
2021/04/02 02:32:43;;;;;;;13.73;8.93;;;;;;;8.55;41.16;94895.72;5086814;28;20468;-70
2021/04/02 02:35:12;;;;;;;17.57;9.53;;;;;;;8.30;41.86;94882.34;5081882;28;20455;-73
2021/04/02 02:37:41;;;;;;;17.13;9.77;;;;;;;8.50;41.64;94903.50;5085835;28;20453;-70
2021/04/02 02:40:15;;;;;;;18.80;10.53;;;;;;;8.36;42.44;94912.69;5079612;28;20460;-74
2021/04/02 02:42:43;;;;;;;19.80;10.57;;;;;;;8.29;42.37;94891.19;5084694;28;20469;-72
2021/04/02 02:45:12;;;;;;;22.07;12.13;;;;;;;8.36;42.01;94902.25;5079340;28;20461;-73
2021/04/02 02:47:41;;;;;;;24.83;13.80;;;;;;;8.25;42.02;94897.13;5088919;28;20480;-70
2021/04/02 02:50:12;;;;;;;27.07;13.70;;;;;;;8.28;42.52;94905.28;5084569;28;20502;-73
2021/04/02 02:52:39;;;;;;;29.27;17.47;;;;;;;8.08;42.14;94897.13;5090079;28;20448;-75
2021/04/02 02:55:09;;;;;;;30.93;17.40;;;;;;;8.17;42.12;94898.31;5082849;28;20970;-76
2021/04/02 02:57:38;;;;;;;25.57;15.77;;;;;;;8.11;42.89;94879.19;5088694;28;20532;-74
2021/04/02 03:00:26;;;;;;;33.10;15.40;;;;;;;8.07;42.58;94861.63;5083138;28;20477;-75
2021/04/02 03:02:57;;;;;;;31.77;17.97;;;;;;;7.96;42.94;94880.75;5088144;28;20528;-76
2021/04/02 03:05:27;;;;;;;28.00;16.07;;;;;;;8.18;43.04;94890.22;5081046;28;20461;-75
2021/04/02 03:07:58;;;;;;;28.63;15.37;;;;;;;8.20;42.17;94893.41;5082962;28;20483;-72
2021/04/02 03:10:27;;;;;;;38.77;14.67;;;;;;;8.27;42.31;94893.25;5083994;28;20464;-72
2021/04/02 03:12:55;;;;;;;28.37;14.00;;;;;;;8.19;43.08;94896.25;5087694;28;20445;-74
2021/04/02 03:15:23;;;;;;;25.33;14.90;;;;;;;8.09;43.23;94891.66;5085074;28;20502;-73
2021/04/02 03:17:55;;;;;;;33.17;15.20;;;;;;;8.15;42.64;94892.53;5088328;28;20469;-72
2021/04/02 03:20:22;;;;;;;28.93;15.70;;;;;;;8.12;42.95;94885.16;5084767;28;20477;-73
2021/04/02 03:22:51;;;;;;;34.30;15.80;;;;;;;8.11;42.94;94891.44;5087821;28;20480;-74
2021/04/02 03:25:22;;;;;;;27.83;16.57;;;;;;;7.90;43.95;94889.56;5063300;28;20450;-75
2021/04/02 03:27:54;;;;;;;30.37;17.90;;;;;;;8.19;43.33;94891.78;5077010;28;21416;-72
2021/04/02 03:30:39;;;;;;;34.57;18.33;;;;;;;8.22;42.92;94885.31;5085903;28;20448;-74
2021/04/02 03:33:22;;;;;;;35.60;17.73;;;;;;;8.30;43.07;94886.75;5086237;28;21006;-72
2021/04/02 03:36:08;;;;;;;41.27;19.07;;;;;;;8.23;43.42;94882.47;5090741;28;20453;-71
2021/04/02 03:38:38;;;;;;;38.27;19.67;;;;;;;8.06;43.46;94878.31;5081654;28;20449;-73
2021/04/02 03:41:13;;;;;;;36.07;18.03;;;;;;;8.00;43.75;94882.66;5089394;28;20591;-73
2021/04/02 03:43:45;;;;;;;38.43;18.80;;;;;;;7.90;44.85;94889.56;5081666;28;20446;-70
2021/04/02 03:46:13;;;;;;;41.20;20.33;;;;;;;7.85;44.89;94879.03;5090160;28;20450;-72
2021/04/02 03:48:43;;;;;;;40.37;20.60;;;;;;;7.84;44.89;94877.47;5081936;28;20454;-72
2021/04/02 03:51:15;;;;;;;42.80;21.60;;;;;;;7.92;45.03;94869.22;5091014;28;20548;-76
2021/04/02 03:53:49;;;;;;;43.73;23.23;;;;;;;7.75;44.63;94863.25;5080184;28;20450;-75
2021/04/02 03:56:22;;;;;;;43.33;21.73;;;;;;;7.72;44.68;94828.00;5090694;28;20448;-75
2021/04/02 03:58:52;;;;;;;50.10;26.00;;;;;;;7.68;45.30;94866.00;5080520;28;20536;-77
2021/04/02 04:01:32;;;;;;;53.00;25.77;;;;;;;7.69;45.68;94865.00;5065365;28;21143;-73
2021/04/02 04:04:02;;;;;;;57.80;25.20;;;;;;;7.91;44.64;94871.06;5087119;28;20491;-77
2021/04/02 04:06:35;;;;;;;51.83;26.73;;;;;;;7.86;45.34;94878.03;5088020;28;20471;-73
2021/04/02 04:09:13;;;;;;;57.17;27.93;;;;;;;7.57;45.58;94871.31;5090935;28;20476;-75
2021/04/02 04:11:42;;;;;;;55.33;29.03;;;;;;;7.65;45.49;94868.28;5078758;28;20445;-75
2021/04/02 04:14:12;;;;;;;57.63;28.73;;;;;;;7.68;45.26;94867.84;5073131;28;20552;-76
2021/04/02 04:16:42;;;;;;;62.67;28.20;;;;;;;7.59;45.70;94874.47;5071129;28;20537;-76
2021/04/02 04:19:14;;;;;;;55.17;28.27;;;;;;;7.43;46.22;94880.44;5088675;28;20506;-78
2021/04/02 04:21:46;;;;;;;55.83;27.73;;;;;;;7.57;45.72;94877.28;5090566;28;20554;-73
2021/04/02 04:24:22;;;;;;;66.60;29.73;;;;;;;7.63;45.79;94876.34;5091741;28;20689;-72
2021/04/02 04:26:51;;;;;;;61.03;29.07;;;;;;;7.65;45.39;94865.69;5092105;28;20437;-75
2021/04/02 04:29:51;;;;;;;67.47;29.60;;;;;;;7.63;46.41;94878.16;5091608;28;20495;-68
2021/04/02 04:32:20;;;;;;;67.97;35.20;;;;;;;7.82;46.08;94876.91;5067330;28;20448;-73
2021/04/02 04:34:48;;;;;;;72.90;39.37;;;;;;;7.69;46.88;94877.22;5071490;28;20989;-74
2021/04/02 04:37:17;;;;;;;91.53;38.50;;;;;;;7.69;46.51;94877.22;5070372;28;20540;-68
2021/04/02 04:39:47;;;;;;;80.23;37.63;;;;;;;7.79;47.12;94887.84;5071042;28;20488;-70
2021/04/02 04:42:19;;;;;;;60.80;34.00;;;;;;;7.81;47.01;94883.16;5069984;28;20485;-70
2021/04/02 04:44:49;;;;;;;68.77;38.13;;;;;;;7.65;47.73;94883.94;5068656;28;20436;-69
2021/04/02 04:47:17;;;;;;;196.97;136.73;;;;;;;7.80;48.03;94884.19;5071117;28;20673;-70
2021/04/02 04:49:44;;;;;;;69.73;40.33;;;;;;;7.97;46.87;94872.69;5070868;28;20449;-68
2021/04/02 04:52:16;;;;;;;61.77;35.20;;;;;;;8.02;47.41;94879.81;5068573;28;20536;-72
2021/04/02 04:54:46;;;;;;;58.87;32.67;;;;;;;8.04;46.91;94881.16;5060895;28;20435;-71
2021/04/02 04:57:14;;;;;;;75.50;36.55;;;;;;;8.19;46.75;94875.38;5060986;28;20427;-76
2021/04/02 04:59:42;;;;;;;117.47;69.30;;;;;;;8.01;47.35;94859.97;5059121;28;20255;-76
2021/04/02 05:02:11;;;;;;;62.50;31.33;;;;;;;8.03;46.95;94876.97;5059689;28;20551;-75
2021/04/02 05:04:39;;;;;;;59.97;29.57;;;;;;;7.85;46.67;94872.00;5063477;28;20529;-75
2021/04/02 05:07:07;;;;;;;49.70;25.30;;;;;;;7.89;46.72;94877.53;5067139;28;20431;-73
2021/04/02 05:09:35;;;;;;;53.03;25.20;;;;;;;7.77;46.99;94882.06;5058360;28;20474;-72
2021/04/02 05:12:05;;;;;;;43.33;24.17;;;;;;;7.86;46.97;94880.63;5058526;28;20442;-73
2021/04/02 05:14:34;;;;;;;45.97;25.80;;;;;;;7.76;47.03;94880.47;5060725;28;20894;-75
2021/04/02 05:17:01;;;;;;;50.53;26.17;;;;;;;7.61;47.06;94883.63;5060169;28;20535;-79
2021/04/02 05:19:28;;;;;;;44.20;25.43;;;;;;;7.68;47.49;94883.47;5058316;28;20442;-74
2021/04/02 05:21:55;;;;;;;49.77;26.77;;;;;;;7.90;47.13;94881.75;5058861;28;20462;-71
2021/04/02 05:24:23;;;;;;;50.33;26.77;;;;;;;7.87;46.95;94883.00;5058273;28;20431;-75
2021/04/02 05:26:50;;;;;;;52.30;30.33;;;;;;;8.01;47.11;94878.25;5054220;28;20535;-75
2021/04/02 05:29:17;;;;;;;59.40;32.17;;;;;;;7.86;46.85;94859.75;5055469;28;20446;-72
2021/04/02 05:31:44;;;;;;;58.10;30.37;;;;;;;8.00;46.90;94874.03;5049691;28;20439;-73
2021/04/02 05:34:14;;;;;;;49.63;31.00;;;;;;;8.28;46.50;94879.19;5064514;28;20807;-73
2021/04/02 05:36:40;;;;;;;54.80;30.20;;;;;;;8.09;46.93;94880.44;5068810;28;20441;-72
2021/04/02 05:39:07;;;;;;;53.50;30.10;;;;;;;8.11;47.18;94883.59;5070413;28;20511;-72
2021/04/02 05:41:53;;;;;;;57.07;30.00;;;;;;;8.10;46.99;94882.03;5069583;28;20434;-71
2021/04/02 05:44:27;;;;;;;47.00;26.70;;;;;;;8.00;47.23;94876.66;5064363;28;20450;-71
2021/04/02 05:46:54;;;;;;;42.97;25.07;;;;;;;8.16;46.78;94870.59;5058136;28;20525;-73
2021/04/02 05:49:21;;;;;;;45.77;24.20;;;;;;;8.30;46.22;94881.53;5060687;28;21116;-74
2021/04/02 05:51:49;;;;;;;53.83;26.07;;;;;;;8.29;46.04;94885.97;5059595;28;20441;-73
2021/04/02 05:54:37;;;;;;;48.73;24.60;;;;;;;8.43;45.78;94881.97;5058211;28;20439;-73
2021/04/02 05:57:04;;;;;;;43.87;22.63;;;;;;;8.49;45.57;94875.78;5059872;28;20820;-73
2021/04/02 05:59:31;;;;;;;41.40;21.50;;;;;;;8.64;44.99;94862.91;5059532;28;20431;-71
2021/04/02 06:01:57;;;;;;;48.07;19.53;;;;;;;8.75;45.37;94864.59;5059676;28;20473;-74
2021/04/02 06:04:24;;;;;;;33.93;17.57;;;;;;;8.80;44.34;94864.66;5059458;28;20440;-75
2021/04/02 06:06:50;;;;;;;35.00;19.30;;;;;;;8.85;44.12;94867.31;5058210;28;20439;-75
2021/04/02 06:09:16;;;;;;;32.37;18.87;;;;;;;8.61;44.89;94852.94;5058192;28;20472;-73
2021/04/02 06:11:43;;;;;;;51.30;20.07;;;;;;;8.99;43.98;94867.75;5059544;28;20802;-75
2021/04/02 06:14:09;;;;;;;35.97;18.73;;;;;;;9.12;43.50;94875.19;5054870;28;20443;-71
2021/04/02 06:16:36;;;;;;;43.20;19.93;;;;;;;9.28;43.48;94857.81;5061278;28;20437;-73
2021/04/02 06:19:07;;;;;;;45.23;20.63;;;;;;;9.30;43.30;94871.44;5069902;28;20450;-74
2021/04/02 06:21:56;;;;;;;47.57;22.73;;;;;;;9.38;43.79;94879.63;5072181;28;20807;-76
2021/04/02 06:24:40;;;;;;;43.87;20.90;;;;;;;9.40;44.03;94882.00;5074017;28;20430;-74
2021/04/02 06:27:09;;;;;;;36.13;19.00;;;;;;;9.57;43.33;94874.81;5073766;28;20811;-75
2021/04/02 06:29:38;;;;;;;39.00;18.40;;;;;;;9.14;43.13;94873.91;5073669;28;20637;-71
2021/04/02 06:32:07;;;;;;;41.87;19.33;;;;;;;9.48;42.77;94873.69;5073951;28;20438;-73
2021/04/02 06:34:33;;;;;;;39.77;19.10;;;;;;;9.58;42.78;94868.56;5074512;28;20442;-71
2021/04/02 06:37:02;;;;;;;40.57;18.70;;;;;;;9.76;42.77;94862.94;5074817;28;20430;-74
2021/04/02 06:39:35;;;;;;;36.80;19.53;;;;;;;10.08;42.94;94858.44;5072812;28;20453;-75
2021/04/02 06:42:06;;;;;;;34.37;18.00;;;;;;;10.29;43.54;94865.41;5073816;28;20995;-72
2021/04/02 06:44:33;;;;;;;46.70;19.40;;;;;;;10.41;43.01;94863.38;5073703;28;20446;-72
2021/04/02 06:46:59;;;;;;;47.40;19.90;;;;;;;10.40;42.44;94856.53;5073705;28;20804;-78
2021/04/02 06:49:26;;;;;;;46.97;21.50;;;;;;;10.65;42.36;94869.00;5073783;28;20445;-74
2021/04/02 06:51:54;;;;;;;44.50;22.50;;;;;;;10.80;41.61;94866.44;5073823;28;20441;-76
2021/04/02 06:54:25;;;;;;;37.77;20.57;;;;;;;10.89;40.21;94855.16;5073629;28;20434;-73
2021/04/02 06:57:03;;;;;;;46.33;21.70;;;;;;;10.84;40.58;94847.28;5073374;28;20437;-75
2021/04/02 06:59:35;;;;;;;26.70;15.57;;;;;;;10.99;39.17;94857.03;5073229;28;20434;-75
2021/04/02 07:02:03;;;;;;;29.50;17.57;;;;;;;11.13;39.67;94848.41;5073387;28;20654;-75
2021/04/02 07:04:33;;;;;;;31.13;15.67;;;;;;;11.21;40.03;94850.53;5073856;28;20444;-75
2021/04/02 07:07:03;;;;;;;30.63;15.63;;;;;;;11.47;39.06;94853.19;5073422;28;20507;-75
2021/04/02 07:09:33;;;;;;;34.53;14.63;;;;;;;11.41;39.00;94846.34;5074817;28;20553;-73
2021/04/02 07:12:01;;;;;;;32.10;15.50;;;;;;;11.34;39.17;94845.84;5073204;28;20966;-71
2021/04/02 07:14:30;;;;;;;32.00;16.57;;;;;;;11.34;39.17;94840.59;5073004;28;20430;-73
2021/04/02 07:16:57;;;;;;;34.83;15.37;;;;;;;11.45;39.84;94850.03;5073529;28;20444;-72
2021/04/02 07:19:25;;;;;;;32.03;16.00;;;;;;;11.66;40.13;94852.44;5073103;28;20441;-71
2021/04/02 07:21:52;;;;;;;29.67;17.53;;;;;;;11.91;39.12;94855.06;5072908;28;20452;-72
2021/04/02 07:24:19;;;;;;;29.07;17.27;;;;;;;11.83;38.47;94849.56;5073197;28;20434;-72
2021/04/02 07:26:47;;;;;;;41.43;22.93;;;;;;;11.96;38.60;94838.50;5072998;28;20430;-72
2021/04/02 07:29:16;;;;;;;38.57;18.23;;;;;;;11.81;37.69;94825.41;5072643;28;20450;-74
2021/04/02 07:31:44;;;;;;;30.20;16.90;;;;;;;11.88;38.05;94831.16;5073286;28;20453;-73
2021/04/02 07:34:14;;;;;;;33.23;17.30;;;;;;;12.03;38.52;94831.16;5073112;28;20430;-76
2021/04/02 07:36:40;;;;;;;38.50;18.13;;;;;;;12.27;38.76;94833.97;5073074;28;20552;-71
2021/04/02 07:39:08;;;;;;;28.30;17.77;;;;;;;12.10;38.51;94839.53;5074688;28;20853;-75
2021/04/02 07:41:44;;;;;;;35.57;18.30;;;;;;;12.58;37.63;94830.22;5075444;28;20436;-73
2021/04/02 07:44:14;;;;;;;37.10;18.37;;;;;;;12.76;36.80;94832.22;5068098;28;20449;-73
2021/04/02 07:46:59;;;;;;;33.83;17.83;;;;;;;12.59;36.84;94837.06;5061164;28;20446;-73
2021/04/02 07:49:30;;;;;;;74.53;36.63;;;;;;;12.77;37.22;94833.81;5060745;28;21037;-73
2021/04/02 07:51:58;;;;;;;40.80;22.10;;;;;;;13.04;37.40;94834.25;5068363;28;20507;-73
2021/04/02 07:54:33;;;;;;;43.53;23.07;;;;;;;13.21;36.30;94829.38;5071400;28;20525;-73
2021/04/02 07:57:15;;;;;;;44.20;20.53;;;;;;;13.24;36.93;94823.59;5070853;28;20442;-72
2021/04/02 07:59:41;;;;;;;36.33;20.27;;;;;;;13.24;36.96;94831.50;5070341;28;20456;-73
2021/04/02 08:02:31;;;;;;;36.97;18.87;;;;;;;13.60;36.30;94834.66;5071577;28;20462;-75
2021/04/02 08:04:58;;;;;;;32.77;18.43;;;;;;;13.77;36.49;94832.41;5073189;28;20504;-73
2021/04/02 08:07:41;;;;;;;49.43;19.50;;;;;;;13.80;36.53;94816.06;5071853;28;20521;-74
2021/04/02 08:10:09;;;;;;;38.13;19.17;;;;;;;13.74;35.52;94827.72;5071738;28;20474;-71
2021/04/02 08:12:36;;;;;;;37.90;18.70;;;;;;;13.74;37.20;94823.22;5072138;28;20445;-74
2021/04/02 08:15:10;;;;;;;36.57;19.67;;;;;;;14.03;36.44;94821.38;5071888;28;20438;-73
2021/04/02 08:17:37;;;;;;;38.77;18.00;;;;;;;14.17;36.72;94805.69;5072381;28;20473;-75
2021/04/02 08:20:18;;;;;;;32.60;17.43;;;;;;;14.41;35.86;94801.25;5071680;28;20430;-72
2021/04/02 08:22:48;;;;;;;29.70;17.23;;;;;;;14.67;35.73;94807.78;5071652;28;20474;-74
2021/04/02 08:25:16;;;;;;;36.03;18.63;;;;;;;14.54;35.75;94789.25;5071276;28;20441;-72
2021/04/02 08:27:45;;;;;;;34.87;17.70;;;;;;;14.81;35.65;94806.03;5071419;28;20895;-74
2021/04/02 08:30:14;;;;;;;32.63;17.43;;;;;;;15.01;36.31;94795.22;5071492;28;20426;-76
2021/04/02 08:32:49;;;;;;;37.47;17.80;;;;;;;15.30;36.05;94818.84;5071280;28;20438;-76
2021/04/02 08:35:19;;;;;;;29.00;17.73;;;;;;;15.63;35.33;94806.47;5071213;28;20935;-73
2021/04/02 08:38:03;;;;;;;33.20;18.23;;;;;;;15.68;34.16;94796.63;5071312;28;21060;-75
2021/04/02 08:40:30;;;;;;;32.37;18.80;;;;;;;15.53;34.26;94769.69;5070982;28;20433;-73
2021/04/02 08:43:01;;;;;;;33.07;18.70;;;;;;;15.76;33.48;94795.97;5070041;28;20515;-76
2021/04/02 08:45:36;;;;;;;36.10;18.60;;;;;;;15.76;33.83;94779.34;5070982;28;20418;-77
2021/04/02 08:48:04;;;;;;;37.53;19.70;;;;;;;15.82;33.05;94794.03;5071678;28;20445;-71
2021/04/02 08:50:30;;;;;;;35.67;20.03;;;;;;;15.92;33.89;94794.63;5071213;28;20440;-73
2021/04/02 08:53:04;;;;;;;41.97;20.20;;;;;;;16.16;33.59;94795.28;5070740;28;20833;-74
2021/04/02 08:55:31;;;;;;;37.73;21.03;;;;;;;16.21;33.97;94797.03;5070681;28;20437;-74
2021/04/02 08:57:58;;;;;;;41.30;22.10;;;;;;;16.30;34.13;94789.97;5071048;28;20434;-75
2021/04/02 09:00:25;;;;;;;43.33;21.40;;;;;;;16.37;34.09;94789.63;5070920;28;20437;-72
2021/04/02 09:02:53;;;;;;;41.73;22.10;;;;;;;16.54;34.87;94787.97;5070376;28;20561;-73
2021/04/02 09:05:19;;;;;;;37.37;21.20;;;;;;;16.81;34.47;94789.78;5070245;28;20520;-71
2021/04/02 09:07:46;;;;;;;34.67;20.00;;;;;;;17.27;33.30;94787.75;5070983;28;20887;-76
2021/04/02 09:10:17;;;;;;;39.00;20.37;;;;;;;17.44;33.91;94776.50;5070406;28;20492;-76
2021/04/02 09:12:49;;;;;;;49.97;20.33;;;;;;;17.71;33.46;94771.91;5070482;28;20442;-74
2021/04/02 09:15:17;;;;;;;39.30;23.60;;;;;;;17.62;34.03;94764.97;5070510;28;20501;-73
2021/04/02 09:17:44;;;;;;;38.47;18.30;;;;;;;17.79;34.61;94757.91;5070633;28;20977;-74
2021/04/02 09:20:12;;;;;;;38.47;18.97;;;;;;;18.11;32.85;94759.47;5070145;28;20439;-72
2021/04/02 09:22:42;;;;;;;38.57;19.20;;;;;;;18.22;31.62;94763.44;5070295;28;20501;-71
2021/04/02 09:25:23;;;;;;;39.63;19.23;;;;;;;18.13;32.64;94757.31;5069984;28;20435;-73
2021/04/02 09:27:50;;;;;;;31.30;18.30;;;;;;;18.28;30.98;94764.88;5070548;28;20549;-74
2021/04/02 09:30:26;;;;;;;40.20;20.53;;;;;;;17.99;31.53;94767.22;5070233;28;20995;-73
2021/04/02 09:32:53;;;;;;;39.87;19.30;;;;;;;18.32;31.63;94760.50;5069827;28;20898;-73
2021/04/02 09:35:20;;;;;;;32.67;17.40;;;;;;;18.70;32.24;94750.97;5068431;28;20423;-74
2021/04/02 09:37:48;;;;;;;39.77;17.80;;;;;;;19.20;30.14;94752.13;5070363;28;20434;-73
2021/04/02 09:40:17;;;;;;;36.70;17.40;;;;;;;19.48;30.23;94751.84;5070168;28;20437;-74
2021/04/02 09:42:48;;;;;;;26.10;14.43;;;;;;;19.77;30.36;94746.66;5070070;28;20472;-74
2021/04/02 09:45:15;;;;;;;24.37;14.30;;;;;;;20.36;31.36;94743.06;5069785;28;20564;-75
2021/04/02 09:47:46;;;;;;;13.83;8.47;;;;;;;20.30;29.59;94739.00;5070086;28;20814;-71
2021/04/02 09:50:15;;;;;;;16.47;7.47;;;;;;;20.11;29.68;94746.56;5069857;28;20931;-74
2021/04/02 09:52:43;;;;;;;10.23;6.30;;;;;;;19.94;29.70;94735.97;5070101;28;20530;-70
2021/04/02 09:55:11;;;;;;;14.13;6.53;;;;;;;19.93;30.32;94726.41;5069484;28;20845;-75
2021/04/02 09:57:38;;;;;;;13.80;6.87;;;;;;;20.10;30.36;94726.38;5069851;28;20442;-73
2021/04/02 10:00:07;;;;;;;12.17;6.43;;;;;;;20.44;29.78;94734.25;5069751;28;20525;-73
2021/04/02 10:02:35;;;;;;;10.30;6.30;;;;;;;19.77;30.12;94749.31;5069322;28;20482;-76
2021/04/02 10:05:03;;;;;;;10.27;6.07;;;;;;;19.78;30.04;94726.97;5069652;28;20936;-69
2021/04/02 10:07:32;;;;;;;12.70;6.37;;;;;;;19.78;30.78;94743.66;5069854;28;20442;-73
2021/04/02 10:09:59;;;;;;;44.97;7.73;;;;;;;19.38;31.58;94738.91;5069309;28;20473;-79
2021/04/02 10:12:26;;;;;;;20.57;7.13;;;;;;;19.18;31.65;94741.03;5070174;28;20448;-73
2021/04/02 10:14:52;;;;;;;17.23;7.17;;;;;;;19.05;31.74;94749.13;5069278;28;20474;-71
2021/04/02 10:17:19;;;;;;;17.03;6.53;;;;;;;19.03;31.49;94733.53;5069597;28;20423;-73
2021/04/02 10:19:47;;;;;;;19.97;7.73;;;;;;;19.23;32.07;94768.56;5069233;28;20959;-74
2021/04/02 10:22:14;;;;;;;27.83;7.30;;;;;;;19.10;32.23;94789.63;5069520;28;20445;-70
2021/04/02 10:24:41;;;;;;;44.17;8.60;;;;;;;18.84;33.04;94778.19;5069320;28;20963;-71
2021/04/02 10:27:07;;;;;;;27.87;7.63;;;;;;;18.48;33.92;94777.63;5069355;28;20990;-72
2021/04/02 10:29:35;;;;;;;29.77;8.43;;;;;;;18.42;35.01;94786.78;5069499;28;20442;-73
2021/04/02 10:32:02;;;;;;;30.77;8.63;;;;;;;18.41;35.63;94779.91;5068993;28;20533;-76
2021/04/02 10:34:29;;;;;;;34.27;8.03;;;;;;;18.32;35.79;94808.25;5069283;28;20442;-73
2021/04/02 10:36:56;;;;;;;29.87;8.47;;;;;;;17.94;35.73;94807.91;5069014;28;20874;-71
2021/04/02 10:39:22;;;;;;;29.90;8.20;;;;;;;17.36;36.74;94798.41;5069621;28;20976;-76
2021/04/02 10:41:49;;;;;;;34.23;9.20;;;;;;;17.26;38.96;94806.59;5069213;28;20537;-72
2021/04/02 10:44:18;;;;;;;19.17;7.73;;;;;;;16.27;41.90;94774.72;5069549;28;20477;-71
2021/04/02 10:46:44;;;;;;;16.70;7.20;;;;;;;16.43;44.59;94826.22;5069052;28;20561;-76
2021/04/02 10:49:11;;;;;;;9.37;6.67;;;;;;;16.41;46.39;94828.38;5068855;28;20513;-73
2021/04/02 10:51:37;;;;;;;15.33;7.83;;;;;;;16.11;45.75;94829.69;5070073;28;20490;-71
2021/04/02 10:54:04;;;;;;;10.43;7.37;;;;;;;15.89;47.94;94831.44;5070449;28;20947;-71
2021/04/02 10:56:31;;;;;;;10.47;7.80;;;;;;;15.75;47.56;94838.50;5068765;28;20439;-73
2021/04/02 10:58:58;;;;;;;10.17;7.37;;;;;;;15.25;48.32;94848.72;5069604;28;20446;-76
2021/04/02 11:01:26;;;;;;;12.30;8.40;;;;;;;15.29;49.37;94837.59;5069475;28;20461;-73
2021/04/02 11:03:52;;;;;;;9.30;7.07;;;;;;;14.67;50.05;94823.59;5069539;28;20465;-73
2021/04/02 11:06:18;;;;;;;10.57;8.80;;;;;;;14.78;51.44;94843.53;5069356;28;20483;-75
2021/04/02 11:08:45;;;;;;;12.17;8.33;;;;;;;14.78;53.08;94837.50;5072944;28;20462;-76
2021/04/02 11:11:11;;;;;;;12.23;9.07;;;;;;;14.40;55.00;94831.31;5072688;28;20974;-75
2021/04/02 11:13:38;;;;;;;11.87;9.90;;;;;;;14.32;56.34;94829.31;5073162;28;20437;-75
2021/04/02 11:16:05;;;;;;;13.87;10.00;;;;;;;14.26;56.69;94798.75;5071854;28;20446;-74
2021/04/02 11:18:32;;;;;;;14.50;10.63;;;;;;;14.59;58.48;94813.69;5072302;28;20441;-72
2021/04/02 11:20:59;;;;;;;13.17;10.03;;;;;;;14.65;57.25;94804.66;5073927;28;20466;-76
2021/04/02 11:23:27;;;;;;;12.60;9.90;;;;;;;14.65;57.27;94799.38;5076172;28;20477;-73
2021/04/02 11:25:55;;;;;;;12.27;10.27;;;;;;;14.75;56.51;94793.97;5074740;28;20430;-75
2021/04/02 11:28:23;;;;;;;15.43;10.37;;;;;;;15.10;57.15;94790.88;5073516;28;20450;-76
2021/04/02 11:30:50;;;;;;;15.10;10.20;;;;;;;15.47;56.15;94776.09;5071216;28;20442;-74
2021/04/02 11:33:16;;;;;;;14.07;10.10;;;;;;;15.81;55.13;94774.75;5072436;28;20449;-77
2021/04/02 11:35:43;;;;;;;13.17;10.80;;;;;;;16.13;55.38;94784.47;5072445;28;20804;-77
2021/04/02 11:38:09;;;;;;;15.90;10.10;;;;;;;16.59;54.21;94774.63;5072708;28;20438;-76